createdAt,value
2022-10-02T00:01:53.704Z,30.88
2022-10-02T00:07:04.291Z,37.38
2022-10-02T00:12:12.747Z,27.67
2022-10-02T00:22:42.929Z,32.58
2022-10-02T00:28:04.313Z,33.83
2022-10-02T00:33:20.271Z,35.35
2022-10-02T00:38:40.841Z,36.53
2022-10-02T00:44:00.560Z,34.47
2022-10-02T00:49:23.620Z,35.03
2022-10-02T00:54:49.555Z,35.38
2022-10-02T01:00:04.452Z,41.47
2022-10-02T01:05:10.419Z,29.87
2022-10-02T01:10:15.179Z,26.05
2022-10-02T01:15:22.398Z,28.75
2022-10-02T01:20:36.417Z,38.58
2022-10-02T01:25:42.119Z,40.72
2022-10-02T01:30:50.252Z,25.37
2022-10-02T01:35:54.119Z,36.58
2022-10-02T01:40:59.152Z,38.90
2022-10-02T01:46:17.068Z,32.28
2022-10-02T01:51:35.111Z,36.65
2022-10-02T01:56:49.498Z,41.85
2022-10-02T02:02:05.185Z,41.10
2022-10-02T02:07:15.293Z,34.72
2022-10-02T02:12:24.603Z,48.53
2022-10-02T02:17:33.476Z,46.15
2022-10-02T02:22:42.291Z,35.75
2022-10-02T02:27:52.120Z,42.62
2022-10-02T02:33:01.640Z,34.33
2022-10-02T02:38:09.568Z,42.30
2022-10-02T02:43:19.671Z,30.27
2022-10-02T02:48:27.624Z,26.92
2022-10-02T02:53:36.695Z,27.85
2022-10-02T02:58:46.541Z,18.50
2022-10-02T03:03:50.835Z,22.77
2022-10-02T03:08:55.822Z,17.20
2022-10-02T03:14:08.951Z,15.02
2022-10-02T03:19:28.503Z,29.00
2022-10-02T03:24:40.444Z,27.92
2022-10-02T03:29:50.359Z,18.42
2022-10-02T03:34:54.555Z,21.65
2022-10-02T03:39:59.361Z,19.27
2022-10-02T03:45:04.841Z,19.45
2022-10-02T03:50:10.088Z,19.50
2022-10-02T03:55:29.697Z,22.20
2022-10-02T04:00:38.598Z,24.45
2022-10-02T04:05:48.812Z,24.02
2022-10-02T04:10:58.595Z,20.75
2022-10-02T04:16:10.441Z,17.27
2022-10-02T04:21:20.110Z,28.00
2022-10-02T04:26:29.160Z,26.42
2022-10-02T04:31:34.386Z,43.40
2022-10-02T04:36:48.767Z,56.35
2022-10-02T04:42:15.090Z,44.45
2022-10-02T04:47:38.439Z,36.80
2022-10-02T04:52:57.652Z,45.53
2022-10-02T04:58:24.116Z,32.97
2022-10-02T05:03:43.867Z,41.03
2022-10-02T05:08:59.203Z,21.95
2022-10-02T05:14:40.377Z,31.48
2022-10-02T05:20:00.227Z,41.25
2022-10-02T05:25:29.053Z,48.13
2022-10-02T05:30:42.535Z,36.03
2022-10-02T05:36:12.269Z,26.25
2022-10-02T05:41:24.148Z,38.83
2022-10-02T05:46:32.277Z,32.45
2022-10-02T05:51:44.824Z,31.12
2022-10-02T05:56:57.576Z,26.25
2022-10-02T06:02:06.719Z,36.17
2022-10-02T06:07:15.864Z,26.37
2022-10-02T06:12:26.859Z,33.53
2022-10-02T06:17:35.199Z,40.63
2022-10-02T06:22:46.102Z,51.60
2022-10-02T06:27:55.101Z,34.45
2022-10-02T06:33:06.106Z,31.37
2022-10-02T06:38:27.385Z,26.08
2022-10-02T06:43:47.188Z,25.85
2022-10-02T06:48:58.592Z,22.37
2022-10-02T06:54:19.323Z,24.60
2022-10-02T06:59:36.906Z,26.80
2022-10-02T07:05:11.733Z,30.63
2022-10-02T07:10:27.177Z,31.23
2022-10-02T07:15:50.904Z,30.62
2022-10-02T07:21:01.783Z,32.00
2022-10-02T07:26:26.207Z,32.83
2022-10-02T07:31:40.888Z,27.67
2022-10-02T07:36:55.185Z,32.45
2022-10-02T07:42:27.867Z,24.08
2022-10-02T07:47:57.642Z,26.27
2022-10-02T07:53:09.081Z,25.70
2022-10-02T07:58:18.860Z,24.80
2022-10-02T08:03:25.520Z,18.70
2022-10-02T08:08:33.092Z,23.87
2022-10-02T08:13:43.465Z,17.10
2022-10-02T08:18:51.259Z,17.92
2022-10-02T08:23:59.964Z,14.75
2022-10-02T08:29:12.101Z,17.05
2022-10-02T08:34:19.618Z,16.48
2022-10-02T08:39:44.298Z,24.87
2022-10-02T08:45:21.648Z,21.52
2022-10-02T08:50:44.158Z,14.73
2022-10-02T08:56:04.164Z,19.20
2022-10-02T09:01:29.177Z,24.95
2022-10-02T09:07:16.554Z,19.52
2022-10-02T09:12:58.445Z,20.57
2022-10-02T09:18:16.851Z,17.70
2022-10-02T09:29:12.064Z,17.92
2022-10-02T09:34:52.089Z,21.70
2022-10-02T09:40:26.819Z,21.65
2022-10-02T09:46:03.809Z,16.73
2022-10-02T09:51:48.001Z,19.85
2022-10-02T09:57:31.801Z,15.75
2022-10-02T10:03:13.064Z,20.62
2022-10-02T10:08:37.775Z,20.10
2022-10-02T10:14:08.667Z,18.73
2022-10-02T10:19:54.582Z,17.17
2022-10-02T10:25:31.375Z,17.83
2022-10-02T10:31:03.846Z,16.30
2022-10-02T10:37:00.968Z,20.87
2022-10-02T10:43:06.032Z,17.60
2022-10-02T10:48:27.792Z,20.60
2022-10-02T10:54:08.605Z,19.40
2022-10-02T10:59:35.230Z,17.50
2022-10-02T11:05:03.138Z,14.63
2022-10-02T11:10:20.235Z,18.25
2022-10-02T11:15:52.310Z,14.98
2022-10-02T11:21:20.702Z,21.65
2022-10-02T11:26:38.769Z,15.10
2022-10-02T11:32:14.587Z,11.05
2022-10-02T11:37:39.155Z,15.50
2022-10-02T11:43:14.010Z,16.85
2022-10-02T11:48:50.797Z,19.55
2022-10-02T11:54:05.820Z,10.70
2022-10-02T11:59:28.337Z,13.30
2022-10-02T12:04:42.160Z,21.87
2022-10-02T12:10:00.041Z,15.20
2022-10-02T12:15:10.890Z,13.40
2022-10-02T12:20:39.571Z,11.52
2022-10-02T12:26:12.512Z,9.07
2022-10-02T12:31:25.275Z,13.68
2022-10-02T12:36:51.341Z,9.35
2022-10-02T12:42:20.441Z,15.90
2022-10-02T12:47:56.828Z,12.43
2022-10-02T12:53:31.524Z,9.80
2022-10-02T12:58:49.985Z,11.50
2022-10-02T13:04:39.156Z,11.50
2022-10-02T13:09:52.361Z,11.12
2022-10-02T13:15:19.467Z,6.35
2022-10-02T13:20:36.079Z,11.45
2022-10-02T13:25:56.187Z,6.97
2022-10-02T13:31:11.323Z,13.30
2022-10-02T13:36:20.912Z,11.65
2022-10-02T13:41:38.995Z,10.98
2022-10-02T13:46:57.596Z,8.80
2022-10-02T13:52:14.899Z,7.72
2022-10-02T13:57:35.494Z,7.53
2022-10-02T14:02:49.479Z,12.25
2022-10-02T14:08:26.291Z,8.68
2022-10-02T14:13:48.118Z,7.85
2022-10-02T14:19:22.360Z,8.38
2022-10-02T14:25:00.669Z,6.32
2022-10-02T14:30:08.378Z,12.63
2022-10-02T14:35:43.669Z,16.48
2022-10-02T14:40:53.712Z,7.62
2022-10-02T14:46:05.449Z,5.90
2022-10-02T14:51:22.764Z,9.77
2022-10-02T14:56:44.134Z,6.57
2022-10-02T15:02:01.146Z,9.32
2022-10-02T15:07:10.492Z,5.45
2022-10-02T15:12:19.392Z,8.07
2022-10-02T15:17:56.976Z,4.65
2022-10-02T15:23:04.395Z,7.53
2022-10-02T15:28:35.842Z,8.73
2022-10-02T15:33:47.852Z,9.23
2022-10-02T15:39:22.628Z,5.68
2022-10-02T15:44:43.871Z,9.48
2022-10-02T15:50:04.057Z,8.35
2022-10-02T15:55:21.243Z,4.70
2022-10-02T16:00:27.235Z,6.72
2022-10-02T16:05:55.505Z,8.70
2022-10-02T16:11:18.675Z,12.57
2022-10-02T16:16:35.340Z,11.52
2022-10-02T16:21:55.184Z,11.07
2022-10-02T16:27:21.929Z,13.73
2022-10-02T16:32:35.125Z,13.15
2022-10-02T16:37:46.113Z,14.13
2022-10-02T16:42:57.872Z,16.27
2022-10-02T16:48:08.755Z,10.82
2022-10-02T16:53:23.864Z,12.23
2022-10-02T16:58:32.681Z,14.05
2022-10-02T17:03:41.841Z,13.62
2022-10-02T17:08:53.796Z,12.85
2022-10-02T17:14:15.850Z,10.50
2022-10-02T17:19:26.148Z,15.57
2022-10-02T17:24:39.181Z,9.95
2022-10-02T17:29:53.448Z,13.18
2022-10-02T17:34:59.882Z,10.68
2022-10-02T17:40:13.920Z,15.10
2022-10-02T17:45:32.947Z,14.25
2022-10-02T17:50:54.501Z,18.65
2022-10-02T17:56:29.578Z,13.52
2022-10-02T18:01:43.689Z,13.90
2022-10-02T18:07:01.027Z,16.90
2022-10-02T18:12:28.512Z,17.20
2022-10-02T18:17:47.042Z,11.43
2022-10-02T18:23:09.056Z,12.40
2022-10-02T18:28:29.012Z,20.88
2022-10-02T18:34:09.320Z,20.25
2022-10-02T18:39:20.691Z,19.33
2022-10-02T18:44:45.136Z,20.15
2022-10-02T18:50:05.624Z,16.67
2022-10-02T18:55:35.752Z,19.87
2022-10-02T19:01:03.756Z,19.52
2022-10-02T19:06:16.227Z,17.37
2022-10-02T19:11:20.024Z,17.30
2022-10-02T19:16:26.260Z,20.92
2022-10-02T19:21:35.376Z,20.77
2022-10-02T19:26:45.578Z,15.35
2022-10-02T19:31:49.417Z,12.75
2022-10-02T19:36:58.155Z,17.35
2022-10-02T19:42:05.264Z,12.23
2022-10-02T19:47:16.851Z,16.85
2022-10-02T19:52:37.037Z,31.30
2022-10-02T19:57:41.669Z,11.70
2022-10-02T20:02:47.924Z,19.37
2022-10-02T20:07:55.849Z,13.62
2022-10-02T20:13:07.327Z,17.08
2022-10-02T20:18:13.209Z,14.65
2022-10-02T20:23:24.199Z,12.37
2022-10-02T20:28:34.447Z,13.32
2022-10-02T20:33:42.561Z,17.92
2022-10-02T20:38:53.143Z,18.58
2022-10-02T20:44:03.067Z,14.48
2022-10-02T20:49:27.641Z,15.40
2022-10-02T20:54:44.443Z,12.93
2022-10-02T21:00:12.011Z,18.33
2022-10-02T21:05:38.963Z,11.57
2022-10-02T21:11:15.282Z,19.62
2022-10-02T21:16:52.697Z,21.30
2022-10-02T21:22:24.887Z,14.50
2022-10-02T21:28:08.162Z,22.13
2022-10-02T21:33:15.827Z,13.30
2022-10-02T21:38:53.134Z,21.67
2022-10-02T21:44:36.351Z,13.50
2022-10-02T21:50:15.117Z,19.90
2022-10-02T21:55:54.161Z,10.27
2022-10-02T22:01:24.941Z,15.48
2022-10-02T22:06:38.447Z,20.77
2022-10-02T22:11:58.363Z,15.65
2022-10-02T22:17:13.850Z,16.20
2022-10-02T22:22:30.731Z,19.42
2022-10-02T22:27:57.597Z,23.62
2022-10-02T22:33:14.108Z,19.42
2022-10-02T22:38:25.697Z,19.42
2022-10-02T22:43:38.135Z,15.52
2022-10-02T22:48:48.973Z,14.43
2022-10-02T22:53:57.521Z,13.52
2022-10-02T22:59:12.245Z,28.00
2022-10-02T23:04:28.691Z,14.63
2022-10-02T23:09:40.791Z,11.68
2022-10-02T23:14:58.312Z,19.37
2022-10-02T23:20:06.059Z,11.83
2022-10-02T23:25:20.607Z,16.93
2022-10-02T23:30:26.326Z,18.20
2022-10-02T23:35:38.987Z,25.95
2022-10-02T23:41:19.868Z,17.33
2022-10-02T23:46:30.213Z,20.50
2022-10-02T23:51:45.985Z,19.05
2022-10-02T23:57:08.083Z,16.20
